Aérodrome :
LOGIN :

S'inscrire | Disclaimer

   EN    FR    IT 

 










Légende :    VFR   VFR Marginal   IFR   IFR Intensif   IFR Très Intensif
Visi : 
Plafond : 
>= 8 km
>= 3000ft
5 à 8 km
1000 à 3000 ft
1500m à 5 km
500 à 1000 ft
800 à 1500m
200 à 500 ft
< 800m
< 200 ft
Symboles :   Orages  Brouillard  Fortes neiges  Fortes précipitations  Vent > 20 kt
SIGMETs :   Divers  Orages  Givrage  Turbulence  Onde Orograph.  Cendres Volcan.






- Altitude de l'aérodrome : 100 ft


EBDT - Schaffen

DERNIER METAR :
  • 221755Z VRB01KT 9999 SCT035 BKN120 BKN220 12/10 Q1024 BLU BLU

METARs EXPIRÉS :
  • 221725Z VRB02KT 9999 SCT030 BKN130 BKN220 12/10 Q1024 BLU BLU
  • 221655Z VRB02KT 9999 FEW030 BKN130 BKN220 12/10 Q1024 BLU BLU
  • 221625Z VRB01KT 9999 FEW030 SCT140 BKN220 13/09 Q1024 BLU BLU
  • 221555Z VRB02KT 9999 FEW030 SCT140 BKN220 14/09 Q1024 BLU BLU
  • 221525Z VRB02KT 9999 SCT030 SCT230 15/09 Q1023 BLU BLU

TAF TAF EBDT
Valide du 22 à 13h jusqu'au 22 à 22h UTC


221148Z 2213/2222 23006G10KT 9999 SCT015 BKN025
BECMG 2213/2214 24004KT SCT027 BKN037
BECMG 2215/2217 SCT020
BECMG 2218/2219 09004KT FEW014 OVC080



MET'MAP, la Météo Aéronautique d'un coup d'oeil ! - Copyright ORBIFLY Décembre 2007 - Disclaimer

ORBIFLY MET'MAP TEAM :

Programmation & Développement : Alexandra Zaïnal
Conception & Développement : Baudouin d'Aumeries
Co-Programmation & Développement : Marc-Olivier Méhu
Soutien technique & logistique : Manuel Goepfert

Contact : metmap@orbifly.com




SOURCES & CREDITS :

   NOAA